Time;durP1;ratioP1;P1;durP2;ratioP2;P2;SDS_P1;SDS_P2;PMS_P1;PMS_P2;Temp;Humidity;BMP_temperature;BMP_pressure;BME280_temperature;BME280_humidity;BME280_pressure;Samples;Min_cycle;Max_cycle;Signal;HPM_P1;HPM_P2
2022/03/11 00:02:25;;;;;;;6.07;2.78;;;;;;;;;;4995768;28;20019;-75
2022/03/11 00:04:51;;;;;;;6.43;2.47;;;;;;;;;;5009638;28;20030;-76
2022/03/11 00:07:17;;;;;;;6.25;3.70;;;;;;;;;;5010239;28;20096;-74
2022/03/11 00:09:43;;;;;;;14.57;3.20;;;;;;;;;;5013508;28;20053;-74
2022/03/11 00:12:10;;;;;;;7.82;2.70;;;;;;;;;;5012853;28;20072;-75
2022/03/11 00:14:37;;;;;;;7.38;2.70;;;;;;;;;;5013903;28;20556;-74
2022/03/11 00:17:03;;;;;;;11.77;3.10;;;;;;;;;;5015535;28;20037;-75
2022/03/11 00:19:29;;;;;;;5.22;2.20;;;;;;;;;;4984396;28;20030;-75
2022/03/11 00:21:55;;;;;;;7.10;2.45;;;;;;;;;;5012004;28;20152;-75
2022/03/11 00:24:22;;;;;;;8.38;2.70;;;;;;;;;;5012973;28;20289;-75
2022/03/11 00:26:48;;;;;;;8.40;3.25;;;;;;;;;;5010551;28;20034;-74
2022/03/11 00:29:14;;;;;;;8.38;2.80;;;;;;;;;;5013416;28;20030;-74
2022/03/11 00:31:40;;;;;;;10.10;3.00;;;;;;;;;;5011414;28;20052;-74
2022/03/11 00:34:06;;;;;;;5.53;2.55;;;;;;;;;;5012473;28;20064;-73
2022/03/11 00:36:33;;;;;;;10.38;2.90;;;;;;;;;;5011300;28;20033;-74
2022/03/11 00:38:59;;;;;;;6.72;3.08;;;;;;;;;;5014106;28;20025;-74
2022/03/11 00:41:25;;;;;;;9.93;3.30;;;;;;;;;;5011941;28;20034;-74
2022/03/11 00:43:52;;;;;;;10.75;3.80;;;;;;;;;;5012129;28;20073;-75
2022/03/11 00:46:19;;;;;;;9.48;2.78;;;;;;;;;;5004231;28;20022;-74
2022/03/11 00:48:45;;;;;;;8.25;3.35;;;;;;;;;;5012963;28;20634;-74
2022/03/11 00:51:11;;;;;;;11.00;3.33;;;;;;;;;;4994142;28;20293;-74
2022/03/11 00:53:37;;;;;;;13.05;4.40;;;;;;;;;;5012820;28;20061;-75
2022/03/11 00:56:03;;;;;;;13.63;3.28;;;;;;;;;;4993886;28;20087;-74
2022/03/11 00:58:29;;;;;;;13.45;3.50;;;;;;;;;;4998669;28;20061;-76
2022/03/11 01:00:55;;;;;;;14.30;3.40;;;;;;;;;;5005365;28;20467;-75
2022/03/11 01:03:21;;;;;;;11.43;3.13;;;;;;;;;;5011512;28;20468;-74
2022/03/11 01:05:47;;;;;;;7.35;2.80;;;;;;;;;;5012331;28;20120;-75
2022/03/11 01:08:14;;;;;;;9.35;2.70;;;;;;;;;;5011619;28;20563;-74
2022/03/11 01:10:41;;;;;;;8.18;2.75;;;;;;;;;;4993050;28;20022;-74
2022/03/11 01:13:07;;;;;;;10.13;3.25;;;;;;;;;;5011476;28;20101;-74
2022/03/11 01:15:33;;;;;;;8.07;3.17;;;;;;;;;;5013181;28;20045;-75
2022/03/11 01:17:59;;;;;;;9.88;3.15;;;;;;;;;;5010842;28;20065;-75
2022/03/11 01:20:25;;;;;;;9.32;3.42;;;;;;;;;;5011973;28;20227;-75
2022/03/11 01:22:52;;;;;;;8.63;3.20;;;;;;;;;;4993534;28;20026;-74
2022/03/11 01:25:18;;;;;;;10.07;4.45;;;;;;;;;;4993962;28;20137;-74
2022/03/11 01:27:44;;;;;;;18.27;3.13;;;;;;;;;;5010311;28;20034;-75
2022/03/11 01:30:13;;;;;;;7.72;3.15;;;;;;;;;;5012340;28;20124;-74
2022/03/11 01:32:39;;;;;;;9.02;2.85;;;;;;;;;;5010964;28;20022;-75
2022/03/11 01:35:06;;;;;;;7.53;3.42;;;;;;;;;;5011529;28;20026;-75
2022/03/11 01:37:32;;;;;;;7.97;2.60;;;;;;;;;;5010653;28;20037;-75
2022/03/11 01:39:58;;;;;;;17.40;3.25;;;;;;;;;;5008819;28;20026;-75
2022/03/11 01:42:24;;;;;;;5.88;3.67;;;;;;;;;;5011667;28;20022;-75
2022/03/11 01:44:52;;;;;;;7.95;2.75;;;;;;;;;;5006533;28;20026;-75
2022/03/11 01:47:19;;;;;;;11.73;3.13;;;;;;;;;;4987467;28;20026;-74
2022/03/11 01:49:45;;;;;;;10.15;3.75;;;;;;;;;;5012010;28;20026;-75
2022/03/11 01:52:14;;;;;;;8.18;2.97;;;;;;;;;;5008640;28;20540;-75
2022/03/11 01:54:44;;;;;;;9.52;2.83;;;;;;;;;;5011531;28;20029;-75
2022/03/11 01:57:10;;;;;;;5.90;2.30;;;;;;;;;;5010240;28;20026;-75
2022/03/11 01:59:36;;;;;;;10.40;2.83;;;;;;;;;;5012073;28;20520;-74
2022/03/11 02:02:03;;;;;;;8.98;3.03;;;;;;;;;;5009113;28;20051;-74
2022/03/11 02:04:29;;;;;;;9.82;3.00;;;;;;;;;;5011455;28;20393;-73
2022/03/11 02:06:55;;;;;;;4.70;2.65;;;;;;;;;;5009748;28;20444;-74
2022/03/11 02:09:21;;;;;;;9.40;2.83;;;;;;;;;;5010650;28;20025;-74
2022/03/11 02:11:47;;;;;;;5.85;2.45;;;;;;;;;;5009087;28;20499;-75
2022/03/11 02:14:14;;;;;;;11.35;3.22;;;;;;;;;;5006747;28;20038;-75
2022/03/11 02:16:40;;;;;;;9.88;2.88;;;;;;;;;;5010300;28;20030;-74
2022/03/11 02:19:07;;;;;;;8.32;2.80;;;;;;;;;;5006435;28;20030;-75
2022/03/11 02:21:47;;;;;;;3.80;2.42;;;;;;;;;;5010760;28;20044;-74
2022/03/11 02:24:14;;;;;;;5.15;2.67;;;;;;;;;;5010468;28;20038;-75
2022/03/11 02:26:40;;;;;;;7.85;3.10;;;;;;;;;;5010045;28;20030;-74
2022/03/11 02:29:07;;;;;;;9.63;2.88;;;;;;;;;;5002082;28;20026;-74
2022/03/11 02:31:33;;;;;;;8.32;3.35;;;;;;;;;;5010892;28;20030;-75
2022/03/11 02:34:00;;;;;;;10.75;3.20;;;;;;;;;;5008732;28;20026;-74
2022/03/11 02:36:26;;;;;;;7.82;2.65;;;;;;;;;;5011575;28;20026;-74
2022/03/11 02:38:53;;;;;;;10.25;3.50;;;;;;;;;;4992738;28;20033;-74
2022/03/11 02:41:19;;;;;;;8.13;3.65;;;;;;;;;;5010586;28;20571;-75
2022/03/11 02:43:45;;;;;;;10.95;2.95;;;;;;;;;;5010287;28;20034;-75
2022/03/11 02:46:12;;;;;;;6.38;3.17;;;;;;;;;;5007142;28;20034;-75
2022/03/11 02:48:38;;;;;;;6.43;3.03;;;;;;;;;;5000940;28;20026;-74
2022/03/11 02:51:05;;;;;;;7.97;3.00;;;;;;;;;;5011108;28;20035;-75
2022/03/11 02:53:31;;;;;;;9.55;2.90;;;;;;;;;;5004950;28;20379;-76
2022/03/11 02:55:58;;;;;;;7.82;2.67;;;;;;;;;;5009624;28;20037;-75
2022/03/11 02:58:24;;;;;;;13.63;3.17;;;;;;;;;;4982671;28;20413;-75
2022/03/11 03:00:50;;;;;;;6.85;3.05;;;;;;;;;;5010912;28;20034;-75
2022/03/11 03:03:16;;;;;;;9.93;3.20;;;;;;;;;;5010286;28;20026;-74
2022/03/11 03:05:42;;;;;;;7.82;3.00;;;;;;;;;;5011782;28;20057;-76
2022/03/11 03:08:08;;;;;;;8.77;2.85;;;;;;;;;;4999301;28;20018;-75
2022/03/11 03:10:35;;;;;;;6.63;3.17;;;;;;;;;;5012197;28;20033;-74
2022/03/11 03:13:02;;;;;;;9.20;3.40;;;;;;;;;;5015510;28;20487;-75
2022/03/11 03:15:28;;;;;;;7.93;2.80;;;;;;;;;;5014780;28;20014;-74
2022/03/11 03:17:54;;;;;;;8.82;3.03;;;;;;;;;;5015735;28;20026;-74
2022/03/11 03:20:20;;;;;;;10.20;3.58;;;;;;;;;;5007386;28;20025;-74
2022/03/11 03:22:46;;;;;;;6.57;3.17;;;;;;;;;;5010335;28;20511;-74
2022/03/11 03:25:12;;;;;;;16.17;5.50;;;;;;;;;;4999091;28;20057;-75
2022/03/11 03:27:38;;;;;;;10.27;3.50;;;;;;;;;;5010891;28;20054;-74
2022/03/11 03:30:05;;;;;;;7.85;3.40;;;;;;;;;;5011717;28;20542;-74
2022/03/11 03:32:31;;;;;;;6.15;3.15;;;;;;;;;;4992060;28;20053;-76
2022/03/11 03:34:57;;;;;;;5.90;2.90;;;;;;;;;;4992895;28;20066;-74
2022/03/11 03:37:23;;;;;;;5.35;2.63;;;;;;;;;;5002128;28;20100;-74
2022/03/11 03:39:49;;;;;;;9.02;3.38;;;;;;;;;;5010214;28;20093;-75
2022/03/11 03:42:16;;;;;;;6.70;3.10;;;;;;;;;;5013406;28;20033;-74
2022/03/11 03:44:42;;;;;;;9.23;3.83;;;;;;;;;;5014344;28;20741;-74
2022/03/11 03:47:08;;;;;;;7.13;3.13;;;;;;;;;;5013325;28;20029;-73
2022/03/11 03:49:34;;;;;;;8.85;3.08;;;;;;;;;;5014078;28;20049;-74
2022/03/11 03:52:01;;;;;;;7.55;3.92;;;;;;;;;;5012974;28;20442;-74
2022/03/11 03:54:28;;;;;;;5.70;3.38;;;;;;;;;;5013435;28;20046;-73
2022/03/11 03:56:54;;;;;;;6.93;2.83;;;;;;;;;;5012493;28;20034;-74
2022/03/11 03:59:20;;;;;;;9.13;3.63;;;;;;;;;;5013515;28;20026;-74
2022/03/11 04:01:46;;;;;;;6.22;3.25;;;;;;;;;;5012278;28;20033;-74
2022/03/11 04:04:13;;;;;;;3.78;2.47;;;;;;;;;;5010884;28;20030;-74
2022/03/11 04:06:42;;;;;;;5.13;3.17;;;;;;;;;;5009454;28;20449;-74
2022/03/11 04:09:09;;;;;;;8.35;3.08;;;;;;;;;;5014870;28;20029;-73
2022/03/11 04:11:35;;;;;;;7.25;2.78;;;;;;;;;;5013535;28;20026;-74
2022/03/11 04:14:02;;;;;;;4.88;3.53;;;;;;;;;;5012887;28;20591;-73
2022/03/11 04:16:28;;;;;;;5.57;3.10;;;;;;;;;;5010426;28;20396;-74
2022/03/11 04:18:54;;;;;;;9.20;3.25;;;;;;;;;;5016611;28;20029;-74
2022/03/11 04:21:21;;;;;;;8.45;3.17;;;;;;;;;;5012491;28;20026;-74
2022/03/11 04:23:48;;;;;;;8.43;3.70;;;;;;;;;;5011899;28;20392;-74
2022/03/11 04:26:14;;;;;;;8.82;3.45;;;;;;;;;;5011297;28;20038;-74
2022/03/11 04:28:41;;;;;;;6.88;3.47;;;;;;;;;;5012849;28;20385;-74
2022/03/11 04:31:08;;;;;;;6.30;3.03;;;;;;;;;;5011613;28;20030;-74
2022/03/11 04:33:34;;;;;;;8.13;3.55;;;;;;;;;;5009102;28;20030;-74
2022/03/11 04:36:00;;;;;;;7.53;2.97;;;;;;;;;;5010570;28;20503;-73
2022/03/11 04:38:26;;;;;;;5.95;3.42;;;;;;;;;;5012912;28;20054;-74
2022/03/11 04:40:53;;;;;;;5.85;3.22;;;;;;;;;;5010546;28;20489;-72
2022/03/11 04:43:19;;;;;;;5.32;2.85;;;;;;;;;;4994831;28;20109;-73
2022/03/11 04:45:45;;;;;;;6.10;3.25;;;;;;;;;;5007748;28;20471;-73
2022/03/11 04:48:12;;;;;;;6.00;3.17;;;;;;;;;;5010943;28;20034;-73
2022/03/11 04:50:38;;;;;;;6.28;3.30;;;;;;;;;;5012319;28;20022;-72
2022/03/11 04:53:04;;;;;;;5.03;3.33;;;;;;;;;;5011296;28;20022;-71
2022/03/11 04:55:30;;;;;;;9.00;3.85;;;;;;;;;;5011424;28;20029;-71
2022/03/11 04:57:57;;;;;;;9.30;3.78;;;;;;;;;;5010826;28;20028;-73
2022/03/11 05:00:23;;;;;;;7.55;4.00;;;;;;;;;;5007111;28;20205;-72
2022/03/11 05:02:50;;;;;;;6.82;3.42;;;;;;;;;;5011578;28;20034;-73
2022/03/11 05:05:16;;;;;;;10.77;3.72;;;;;;;;;;5012094;28;20029;-72
2022/03/11 05:07:43;;;;;;;7.30;3.25;;;;;;;;;;5011435;28;20034;-73
2022/03/11 05:10:10;;;;;;;5.72;3.30;;;;;;;;;;5011512;28;20029;-73
2022/03/11 05:12:37;;;;;;;9.80;3.33;;;;;;;;;;5010227;28;20053;-72
2022/03/11 05:15:04;;;;;;;7.07;3.40;;;;;;;;;;5011341;28;20100;-73
2022/03/11 05:17:30;;;;;;;14.82;4.97;;;;;;;;;;5013038;28;20034;-72
2022/03/11 05:19:56;;;;;;;12.10;3.80;;;;;;;;;;5010030;28;20124;-72
2022/03/11 05:22:22;;;;;;;8.52;3.97;;;;;;;;;;5010919;28;20026;-73
2022/03/11 05:24:48;;;;;;;7.82;3.63;;;;;;;;;;5003237;28;20042;-73
2022/03/11 05:27:14;;;;;;;7.38;3.60;;;;;;;;;;5006319;28;20452;-72
2022/03/11 05:29:40;;;;;;;9.43;3.55;;;;;;;;;;5010296;28;20037;-73
2022/03/11 05:32:07;;;;;;;8.27;3.83;;;;;;;;;;5009887;28;20030;-72
2022/03/11 05:34:34;;;;;;;10.80;3.67;;;;;;;;;;4991275;28;20037;-73
2022/03/11 05:37:01;;;;;;;5.32;3.25;;;;;;;;;;5010003;28;20037;-74
2022/03/11 05:39:27;;;;;;;5.95;3.10;;;;;;;;;;5002802;28;20034;-72
2022/03/11 05:41:53;;;;;;;3.65;2.97;;;;;;;;;;4983662;28;20080;-73
2022/03/11 05:44:19;;;;;;;6.88;3.20;;;;;;;;;;4990620;28;20045;-72
2022/03/11 05:46:48;;;;;;;7.75;3.50;;;;;;;;;;4992450;28;20491;-72
2022/03/11 05:49:14;;;;;;;5.32;3.40;;;;;;;;;;5010668;28;20026;-72
2022/03/11 05:51:40;;;;;;;10.27;3.80;;;;;;;;;;5010540;28;20118;-72
2022/03/11 05:54:06;;;;;;;6.97;4.30;;;;;;;;;;5010763;28;20034;-72
2022/03/11 05:56:34;;;;;;;7.35;3.55;;;;;;;;;;5010819;28;20062;-73
2022/03/11 05:59:00;;;;;;;5.68;3.28;;;;;;;;;;5009607;28;20569;-72
2022/03/11 06:01:26;;;;;;;6.05;3.20;;;;;;;;;;4999480;28;20467;-73
2022/03/11 06:03:53;;;;;;;6.22;3.03;;;;;;;;;;5007912;28;20033;-73
2022/03/11 06:06:19;;;;;;;5.35;2.70;;;;;;;;;;4992414;28;20029;-73
2022/03/11 06:08:45;;;;;;;6.75;3.95;;;;;;;;;;5005978;28;20054;-73
2022/03/11 06:11:11;;;;;;;8.85;3.08;;;;;;;;;;5009342;28;20018;-73
2022/03/11 06:13:37;;;;;;;7.75;3.17;;;;;;;;;;5009021;28;20054;-73
2022/03/11 06:16:04;;;;;;;5.28;2.83;;;;;;;;;;5010730;28;20057;-73
2022/03/11 06:18:30;;;;;;;4.93;3.03;;;;;;;;;;5011616;28;20044;-72
2022/03/11 06:20:57;;;;;;;7.10;3.08;;;;;;;;;;5010698;28;20025;-73
2022/03/11 06:23:23;;;;;;;9.82;3.20;;;;;;;;;;5009622;28;20034;-73
2022/03/11 06:25:49;;;;;;;8.45;3.03;;;;;;;;;;5010483;28;20038;-72
2022/03/11 06:28:15;;;;;;;8.57;3.88;;;;;;;;;;5009058;28;20134;-72
2022/03/11 06:30:42;;;;;;;7.10;3.67;;;;;;;;;;5007670;28;20022;-72
2022/03/11 06:33:09;;;;;;;6.40;3.42;;;;;;;;;;5011317;28;20018;-74
2022/03/11 06:35:36;;;;;;;8.60;2.85;;;;;;;;;;5009234;28;20060;-73
2022/03/11 06:38:02;;;;;;;4.85;3.33;;;;;;;;;;4996154;28;20034;-74
2022/03/11 06:40:28;;;;;;;5.93;3.22;;;;;;;;;;5009903;28;20033;-73
2022/03/11 06:42:54;;;;;;;7.07;2.83;;;;;;;;;;5010388;28;20483;-73
2022/03/11 06:45:20;;;;;;;7.38;3.88;;;;;;;;;;5008634;28;20052;-73
2022/03/11 06:47:47;;;;;;;8.93;3.50;;;;;;;;;;5009816;28;20034;-73
2022/03/11 06:50:14;;;;;;;8.18;3.35;;;;;;;;;;5007410;28;20026;-73
2022/03/11 06:52:40;;;;;;;10.07;3.47;;;;;;;;;;4985502;28;20022;-74
2022/03/11 06:55:07;;;;;;;7.95;3.08;;;;;;;;;;5009980;28;20468;-73
2022/03/11 06:57:34;;;;;;;11.90;3.10;;;;;;;;;;5009965;28;20038;-74
2022/03/11 07:00:00;;;;;;;9.55;4.25;;;;;;;;;;5009253;28;20029;-74
2022/03/11 07:02:26;;;;;;;6.88;3.50;;;;;;;;;;5009013;28;20030;-74
2022/03/11 07:04:52;;;;;;;9.10;3.60;;;;;;;;;;5001130;28;20028;-74
2022/03/11 07:07:18;;;;;;;7.38;2.85;;;;;;;;;;5008321;28;20053;-72
2022/03/11 07:09:44;;;;;;;10.88;4.00;;;;;;;;;;5003157;28;20022;-73
2022/03/11 07:12:11;;;;;;;6.88;3.25;;;;;;;;;;4994597;28;20037;-74
2022/03/11 07:14:37;;;;;;;10.23;3.35;;;;;;;;;;5010398;28;20025;-74
2022/03/11 07:17:04;;;;;;;8.30;3.47;;;;;;;;;;5009652;28;20025;-74
2022/03/11 07:19:30;;;;;;;7.70;3.70;;;;;;;;;;5004997;28;20440;-74
2022/03/11 07:21:56;;;;;;;11.82;3.92;;;;;;;;;;5007662;28;20029;-73
2022/03/11 07:24:22;;;;;;;8.57;3.80;;;;;;;;;;5010070;28;20076;-73
2022/03/11 07:26:48;;;;;;;5.15;3.05;;;;;;;;;;5006222;28;20030;-74
2022/03/11 07:29:15;;;;;;;6.97;3.10;;;;;;;;;;5009331;28;20025;-73
2022/03/11 07:31:41;;;;;;;5.60;3.13;;;;;;;;;;5008940;28;20030;-74
2022/03/11 07:34:07;;;;;;;7.78;3.10;;;;;;;;;;5009735;28;20022;-74
2022/03/11 07:36:34;;;;;;;11.18;3.60;;;;;;;;;;5007969;28;20034;-74
2022/03/11 07:39:03;;;;;;;10.65;3.15;;;;;;;;;;5009490;28;20041;-74
2022/03/11 07:41:29;;;;;;;11.98;3.20;;;;;;;;;;5008673;28;20177;-74
2022/03/11 07:43:55;;;;;;;7.68;3.33;;;;;;;;;;5010787;28;20026;-73
2022/03/11 07:46:23;;;;;;;9.55;3.10;;;;;;;;;;5006352;28;20041;-74
2022/03/11 07:48:49;;;;;;;9.50;3.30;;;;;;;;;;5011229;28;20030;-75
2022/03/11 07:51:15;;;;;;;8.25;3.47;;;;;;;;;;5008859;28;20029;-73
2022/03/11 07:53:42;;;;;;;4.47;2.85;;;;;;;;;;5009625;28;20420;-74
2022/03/11 07:56:10;;;;;;;8.32;3.28;;;;;;;;;;5007890;28;20113;-74
2022/03/11 07:58:36;;;;;;;5.03;3.00;;;;;;;;;;5011975;28;20120;-74
2022/03/11 08:01:04;;;;;;;10.80;3.47;;;;;;;;;;4991851;28;20500;-74
2022/03/11 08:03:30;;;;;;;8.05;3.75;;;;;;;;;;5009192;28;20365;-74
2022/03/11 08:05:57;;;;;;;6.85;2.75;;;;;;;;;;5009023;28;20387;-74
2022/03/11 08:08:23;;;;;;;4.95;3.00;;;;;;;;;;5000288;28;20033;-75
2022/03/11 08:10:49;;;;;;;5.88;3.00;;;;;;;;;;5012167;28;20017;-76
2022/03/11 08:13:15;;;;;;;5.80;2.90;;;;;;;;;;5011384;28;20034;-76
2022/03/11 08:15:41;;;;;;;10.98;3.15;;;;;;;;;;5004583;28;20026;-77
2022/03/11 08:18:07;;;;;;;4.47;3.08;;;;;;;;;;4997443;28;20029;-81
2022/03/11 08:20:33;;;;;;;6.20;3.17;;;;;;;;;;5020494;28;20457;-77
2022/03/11 08:22:59;;;;;;;4.50;2.92;;;;;;;;;;5006952;28;20341;-77
2022/03/11 08:25:28;;;;;;;5.60;3.53;;;;;;;;;;4999943;28;20084;-77
2022/03/11 08:27:55;;;;;;;5.88;4.18;;;;;;;;;;5004550;28;20030;-79
2022/03/11 08:30:22;;;;;;;5.50;3.67;;;;;;;;;;5006890;28;20351;-78
2022/03/11 08:32:49;;;;;;;4.38;3.30;;;;;;;;;;5003290;28;20044;-77
2022/03/11 08:35:15;;;;;;;7.07;3.58;;;;;;;;;;5009369;28;20026;-78
2022/03/11 08:37:42;;;;;;;5.47;3.58;;;;;;;;;;5002454;28;20124;-76
2022/03/11 08:40:10;;;;;;;5.85;3.75;;;;;;;;;;4979989;28;20032;-77
2022/03/11 08:42:37;;;;;;;5.43;3.50;;;;;;;;;;5003610;28;20061;-77
2022/03/11 08:45:04;;;;;;;8.23;4.80;;;;;;;;;;4993734;28;20049;-77
2022/03/11 08:47:31;;;;;;;5.72;3.97;;;;;;;;;;4986671;28;20717;-78
2022/03/11 08:49:57;;;;;;;5.18;3.92;;;;;;;;;;4994347;28;20034;-78
2022/03/11 08:52:28;;;;;;;6.68;4.50;;;;;;;;;;5006984;28;20033;-76
2022/03/11 08:54:54;;;;;;;4.90;3.97;;;;;;;;;;5003879;28;20572;-78
2022/03/11 08:57:23;;;;;;;5.07;4.00;;;;;;;;;;5005610;28;20124;-77
2022/03/11 08:59:50;;;;;;;4.47;3.63;;;;;;;;;;5008877;28;20022;-78
2022/03/11 09:02:17;;;;;;;4.30;3.42;;;;;;;;;;5014729;28;20039;-76
2022/03/11 09:04:43;;;;;;;8.13;4.05;;;;;;;;;;5005865;28;20034;-79
2022/03/11 09:07:10;;;;;;;8.57;4.93;;;;;;;;;;4995888;28;20490;-79
2022/03/11 09:09:36;;;;;;;5.43;3.60;;;;;;;;;;5006735;28;20026;-79
2022/03/11 09:12:03;;;;;;;4.30;3.35;;;;;;;;;;5005335;28;20919;-76
2022/03/11 09:14:30;;;;;;;7.32;3.17;;;;;;;;;;5002266;28;20030;-77
2022/03/11 09:16:56;;;;;;;5.35;2.72;;;;;;;;;;5006456;28;20089;-77
2022/03/11 09:19:22;;;;;;;4.75;3.25;;;;;;;;;;5007595;28;20037;-76
2022/03/11 09:21:48;;;;;;;3.90;2.92;;;;;;;;;;5005089;28;20034;-76
2022/03/11 09:24:15;;;;;;;3.45;2.67;;;;;;;;;;5004881;28;20057;-75
2022/03/11 09:26:41;;;;;;;4.25;2.53;;;;;;;;;;5006120;28;20029;-76
2022/03/11 09:29:07;;;;;;;3.25;2.50;;;;;;;;;;5008594;28;20107;-78
2022/03/11 09:31:34;;;;;;;3.88;2.63;;;;;;;;;;4992057;28;20025;-77
2022/03/11 09:34:00;;;;;;;4.13;2.78;;;;;;;;;;4997898;28;20030;-77
2022/03/11 09:36:26;;;;;;;6.47;3.00;;;;;;;;;;5006355;28;20147;-75
2022/03/11 09:38:53;;;;;;;4.10;2.58;;;;;;;;;;5008243;28;20026;-76
2022/03/11 09:41:20;;;;;;;3.42;2.90;;;;;;;;;;5006225;28;20049;-77
2022/03/11 09:43:47;;;;;;;4.68;2.70;;;;;;;;;;5012724;28;20037;-76
2022/03/11 09:46:14;;;;;;;4.13;2.55;;;;;;;;;;5011980;28;20037;-77
2022/03/11 09:48:42;;;;;;;2.78;2.28;;;;;;;;;;5011878;28;20033;-77
2022/03/11 09:51:10;;;;;;;5.28;2.92;;;;;;;;;;4993944;28;20594;-77
2022/03/11 09:53:36;;;;;;;5.68;3.20;;;;;;;;;;5001701;28;20531;-73
2022/03/11 09:56:02;;;;;;;5.13;2.65;;;;;;;;;;5002631;28;20124;-77
2022/03/11 09:58:29;;;;;;;4.75;2.30;;;;;;;;;;5004952;28;20030;-78
2022/03/11 10:00:55;;;;;;;3.45;2.33;;;;;;;;;;4979355;28;20037;-77
2022/03/11 10:03:22;;;;;;;5.70;2.80;;;;;;;;;;5000889;28;20041;-77
2022/03/11 10:05:49;;;;;;;2.97;2.40;;;;;;;;;;4999964;28;20251;-77
2022/03/11 10:08:16;;;;;;;5.88;2.50;;;;;;;;;;4980766;28;20099;-76
2022/03/11 10:10:42;;;;;;;2.45;1.85;;;;;;;;;;4999819;28;20025;-79
2022/03/11 10:13:09;;;;;;;4.93;2.40;;;;;;;;;;5003533;28;20026;-78
2022/03/11 10:15:35;;;;;;;4.15;2.00;;;;;;;;;;5001873;28;20037;-77
2022/03/11 10:18:04;;;;;;;5.00;2.50;;;;;;;;;;5000974;28;20037;-77
2022/03/11 10:20:31;;;;;;;6.18;2.47;;;;;;;;;;5003384;28;20038;-77
2022/03/11 10:22:57;;;;;;;3.40;1.92;;;;;;;;;;5006576;28;20032;-78
2022/03/11 10:25:25;;;;;;;2.72;2.30;;;;;;;;;;5009107;28;20061;-77
2022/03/11 10:27:55;;;;;;;4.05;2.45;;;;;;;;;;4986775;28;20030;-77
2022/03/11 10:30:21;;;;;;;4.60;2.10;;;;;;;;;;5002715;28;20026;-76
2022/03/11 10:32:51;;;;;;;5.43;2.00;;;;;;;;;;4998673;28;20038;-77
2022/03/11 10:35:18;;;;;;;5.65;1.70;;;;;;;;;;5003477;28;20034;-78
2022/03/11 10:37:57;;;;;;;6.43;2.90;;;;;;;;;;5064052;23;20492;-81
2022/03/11 10:40:23;;;;;;;7.22;3.70;;;;;;;;;;5010557;28;20637;-78
2022/03/11 10:42:49;;;;;;;8.13;4.47;;;;;;;;;;5019817;28;20026;-76
2022/03/11 10:45:16;;;;;;;5.13;2.55;;;;;;;;;;5011078;28;20216;-77
2022/03/11 10:47:42;;;;;;;3.97;2.42;;;;;;;;;;5005321;28;20089;-77
2022/03/11 10:50:12;;;;;;;3.33;2.58;;;;;;;;;;4992509;28;20029;-77
2022/03/11 10:52:42;;;;;;;3.97;2.10;;;;;;;;;;5010540;28;20053;-76
2022/03/11 10:55:26;;;;;;;3.22;2.30;;;;;;;;;;5003294;28;20025;-73
2022/03/11 10:57:59;;;;;;;2.22;2.00;;;;;;;;;;5014194;28;20049;-75
2022/03/11 11:00:30;;;;;;;2.30;1.90;;;;;;;;;;5003255;28;20080;-75
2022/03/11 11:02:59;;;;;;;3.67;2.10;;;;;;;;;;5008752;28;20124;-76
2022/03/11 11:05:26;;;;;;;3.42;2.03;;;;;;;;;;4995424;28;20022;-74
2022/03/11 11:07:53;;;;;;;2.95;2.40;;;;;;;;;;5009958;28;20112;-74
2022/03/11 11:10:20;;;;;;;3.97;2.22;;;;;;;;;;5008998;28;20436;-75
2022/03/11 11:12:47;;;;;;;5.15;2.55;;;;;;;;;;5001755;28;20025;-75
2022/03/11 11:15:15;;;;;;;3.65;2.55;;;;;;;;;;5016029;28;20022;-77
2022/03/11 11:17:42;;;;;;;2.88;1.98;;;;;;;;;;5018773;28;21538;-74
2022/03/11 11:20:19;;;;;;;3.95;2.17;;;;;;;;;;4993503;28;20065;-79
2022/03/11 11:22:46;;;;;;;2.55;2.25;;;;;;;;;;5002427;28;20034;-77
2022/03/11 11:25:12;;;;;;;7.30;4.43;;;;;;;;;;4984590;28;20598;-77
2022/03/11 11:27:39;;;;;;;15.55;5.50;;;;;;;;;;4986102;28;20674;-77
2022/03/11 11:30:06;;;;;;;4.55;3.42;;;;;;;;;;4989135;28;20058;-76
2022/03/11 11:32:32;;;;;;;2.92;1.85;;;;;;;;;;5001398;28;20033;-74
2022/03/11 11:35:17;;;;;;;2.00;1.60;;;;;;;;;;5010382;28;20025;-74
2022/03/11 11:37:43;;;;;;;5.57;3.10;;;;;;;;;;5004559;28;20049;-73
2022/03/11 11:40:19;;;;;;;6.63;3.03;;;;;;;;;;5005762;28;20038;-75
2022/03/11 11:43:04;;;;;;;4.47;2.25;;;;;;;;;;5003865;28;20060;-76
2022/03/11 11:45:42;;;;;;;4.40;2.58;;;;;;;;;;4996634;28;20030;-78
2022/03/11 11:48:27;;;;;;;3.72;2.17;;;;;;;;;;5016056;28;20075;-77
2022/03/11 11:50:53;;;;;;;4.87;2.97;;;;;;;;;;5009911;28;20030;-74
2022/03/11 11:53:33;;;;;;;4.70;2.40;;;;;;;;;;5017300;28;20128;-74
2022/03/11 11:55:59;;;;;;;5.00;3.60;;;;;;;;;;5009189;28;20022;-77
2022/03/11 11:58:26;;;;;;;4.43;1.90;;;;;;;;;;4997571;28;20030;-76
2022/03/11 12:00:56;;;;;;;3.92;2.60;;;;;;;;;;5001580;28;20173;-77
2022/03/11 12:03:42;;;;;;;3.95;2.72;;;;;;;;;;5014496;28;20101;-79
2022/03/11 12:06:08;;;;;;;2.28;2.08;;;;;;;;;;5002082;28;20302;-79
2022/03/11 12:08:37;;;;;;;4.03;2.22;;;;;;;;;;5001964;28;20057;-77
2022/03/11 12:11:05;;;;;;;3.90;2.45;;;;;;;;;;4996924;28;20025;-79
2022/03/11 12:13:32;;;;;;;4.63;2.28;;;;;;;;;;5016655;28;20026;-78
2022/03/11 12:15:58;;;;;;;3.70;2.90;;;;;;;;;;5013654;28;20041;-77
2022/03/11 12:18:45;;;;;;;4.50;3.47;;;;;;;;;;5022787;28;20076;-79
2022/03/11 12:21:34;;;;;;;8.15;5.22;;;;;;;;;;5028686;28;20887;-79
2022/03/11 12:24:19;;;;;;;5.18;3.28;;;;;;;;;;5009831;28;20042;-79
2022/03/11 12:26:45;;;;;;;14.65;7.50;;;;;;;;;;5019995;28;20018;-78
2022/03/11 12:29:49;;;;;;;6.18;3.22;;;;;;;;;;5018910;28;20101;-78
2022/03/11 12:32:16;;;;;;;8.52;3.97;;;;;;;;;;4944047;29;20039;-78
2022/03/11 12:34:43;;;;;;;13.25;7.65;;;;;;;;;;4940195;29;20051;-78
2022/03/11 12:37:14;;;;;;;8.73;5.22;;;;;;;;;;4980176;28;20037;-79
2022/03/11 12:39:41;;;;;;;6.53;4.72;;;;;;;;;;5019838;28;20041;-76
2022/03/11 12:42:07;;;;;;;5.57;3.78;;;;;;;;;;5019475;28;20034;-78
2022/03/11 12:44:46;;;;;;;2.38;1.83;;;;;;;;;;5001574;28;20030;-78
2022/03/11 12:47:16;;;;;;;2.97;2.00;;;;;;;;;;5015595;28;20057;-78
2022/03/11 12:49:42;;;;;;;4.47;2.10;;;;;;;;;;4998539;28;20032;-77
2022/03/11 12:52:19;;;;;;;1.52;1.40;;;;;;;;;;5013148;28;20044;-77
2022/03/11 12:54:45;;;;;;;3.58;1.40;;;;;;;;;;5014878;28;20025;-77
2022/03/11 12:57:12;;;;;;;3.47;3.15;;;;;;;;;;5016445;28;20069;-76
2022/03/11 12:59:39;;;;;;;2.60;2.40;;;;;;;;;;5012423;28;20037;-76
2022/03/11 13:02:08;;;;;;;3.15;2.70;;;;;;;;;;5015143;28;20033;-77
2022/03/11 13:04:44;;;;;;;2.85;2.58;;;;;;;;;;5012325;28;20030;-77
2022/03/11 13:07:10;;;;;;;2.55;2.35;;;;;;;;;;5010146;28;20030;-77
2022/03/11 13:09:36;;;;;;;2.85;1.90;;;;;;;;;;4986482;28;20427;-76
2022/03/11 13:12:24;;;;;;;1.60;1.50;;;;;;;;;;5012508;28;20092;-78
2022/03/11 13:15:09;;;;;;;2.30;1.88;;;;;;;;;;5013915;28;20037;-78
2022/03/11 13:17:42;;;;;;;2.72;1.45;;;;;;;;;;4995982;28;20038;-78
2022/03/11 13:20:08;;;;;;;1.55;1.45;;;;;;;;;;5017301;28;20139;-77
2022/03/11 13:22:34;;;;;;;1.40;1.30;;;;;;;;;;5013256;28;20104;-77
2022/03/11 13:25:05;;;;;;;1.70;1.48;;;;;;;;;;5015767;28;20044;-77
2022/03/11 13:27:38;;;;;;;3.10;1.40;;;;;;;;;;5016591;28;20030;-78
2022/03/11 13:30:07;;;;;;;5.30;1.83;;;;;;;;;;5014634;28;20026;-78
2022/03/11 13:32:33;;;;;;;2.50;1.50;;;;;;;;;;5018051;28;20030;-76
2022/03/11 13:34:59;;;;;;;1.63;1.50;;;;;;;;;;5016574;28;20037;-77
2022/03/11 13:37:25;;;;;;;5.88;3.50;;;;;;;;;;5014654;28;20523;-78
2022/03/11 13:40:08;;;;;;;15.60;6.68;;;;;;;;;;5017907;28;20081;-77
2022/03/11 13:42:34;;;;;;;8.45;3.42;;;;;;;;;;5017171;28;20031;-78
2022/03/11 13:45:07;;;;;;;56.72;22.48;;;;;;;;;;5014636;28;20050;-77
2022/03/11 13:47:33;;;;;;;8.20;4.53;;;;;;;;;;5017034;28;20053;-78
2022/03/11 13:50:07;;;;;;;5.50;2.83;;;;;;;;;;4996711;28;20115;-76
2022/03/11 13:52:40;;;;;;;4.90;4.50;;;;;;;;;;4993740;28;20553;-77
2022/03/11 13:55:07;;;;;;;3.03;2.03;;;;;;;;;;5011598;28;20036;-77
2022/03/11 13:57:34;;;;;;;1.77;1.67;;;;;;;;;;5014520;28;20058;-80
2022/03/11 14:00:16;;;;;;;3.85;2.40;;;;;;;;;;5013675;28;20034;-76
2022/03/11 14:02:42;;;;;;;3.03;2.00;;;;;;;;;;5013368;28;20030;-78
2022/03/11 14:05:08;;;;;;;2.55;1.73;;;;;;;;;;5012222;28;20018;-77
2022/03/11 14:07:34;;;;;;;2.88;1.85;;;;;;;;;;5018932;28;20029;-77
2022/03/11 14:10:01;;;;;;;1.70;1.60;;;;;;;;;;5018395;28;20030;-76
2022/03/11 14:12:28;;;;;;;1.92;1.70;;;;;;;;;;5006836;28;20056;-75
2022/03/11 14:15:04;;;;;;;2.30;1.85;;;;;;;;;;5007582;28;20483;-76
2022/03/11 14:17:31;;;;;;;2.28;2.00;;;;;;;;;;5029104;28;20038;-78
2022/03/11 14:19:58;;;;;;;2.63;2.00;;;;;;;;;;5022927;28;20021;-78
2022/03/11 14:22:24;;;;;;;3.55;2.08;;;;;;;;;;5018448;28;20101;-77
2022/03/11 14:24:50;;;;;;;4.75;2.10;;;;;;;;;;5011768;28;20033;-82
2022/03/11 14:27:17;;;;;;;3.67;2.10;;;;;;;;;;5012585;28;20037;-76
2022/03/11 14:29:43;;;;;;;3.15;1.85;;;;;;;;;;5008277;28;20034;-76
2022/03/11 14:32:09;;;;;;;3.13;1.80;;;;;;;;;;4991233;28;20064;-76
2022/03/11 14:34:35;;;;;;;2.75;1.90;;;;;;;;;;5011077;28;20041;-77
2022/03/11 14:37:03;;;;;;;5.53;2.78;;;;;;;;;;4992745;28;20029;-76
2022/03/11 14:39:30;;;;;;;2.65;1.70;;;;;;;;;;5007269;28;20511;-77
2022/03/11 14:41:56;;;;;;;3.88;2.25;;;;;;;;;;5009243;28;20038;-77
2022/03/11 14:44:22;;;;;;;3.00;2.20;;;;;;;;;;5010036;28;20022;-78